sensor_id;sensor_type;location;lat;lon;timestamp;P1;durP1;ratioP1;P2;durP2;ratioP2
286;SDS011;127;48.770;9.212;2023-09-12T00:02:08;19.57;;;10.23;;
286;SDS011;127;48.770;9.212;2023-09-12T00:04:40;20.30;;;10.13;;
286;SDS011;127;48.770;9.212;2023-09-12T00:07:08;35.50;;;10.97;;
286;SDS011;127;48.770;9.212;2023-09-12T00:09:37;22.37;;;10.20;;
286;SDS011;127;48.770;9.212;2023-09-12T00:12:06;24.63;;;9.97;;
286;SDS011;127;48.770;9.212;2023-09-12T00:14:35;23.63;;;10.23;;
286;SDS011;127;48.770;9.212;2023-09-12T00:17:03;18.73;;;10.30;;
286;SDS011;127;48.770;9.212;2023-09-12T00:19:32;23.00;;;10.57;;
286;SDS011;127;48.770;9.212;2023-09-12T00:22:03;27.43;;;10.43;;
286;SDS011;127;48.770;9.212;2023-09-12T00:24:32;15.70;;;9.40;;
286;SDS011;127;48.770;9.212;2023-09-12T00:27:01;40.83;;;10.90;;
286;SDS011;127;48.770;9.212;2023-09-12T00:29:30;22.43;;;10.50;;
286;SDS011;127;48.770;9.212;2023-09-12T00:31:59;18.07;;;10.23;;
286;SDS011;127;48.770;9.212;2023-09-12T00:34:28;18.37;;;10.10;;
286;SDS011;127;48.770;9.212;2023-09-12T00:36:56;19.10;;;9.97;;
286;SDS011;127;48.770;9.212;2023-09-12T00:39:28;23.73;;;10.23;;
286;SDS011;127;48.770;9.212;2023-09-12T00:41:56;26.50;;;10.30;;
286;SDS011;127;48.770;9.212;2023-09-12T00:44:25;32.17;;;10.20;;
286;SDS011;127;48.770;9.212;2023-09-12T00:46:54;19.70;;;10.43;;
286;SDS011;127;48.770;9.212;2023-09-12T00:49:23;21.07;;;9.63;;
286;SDS011;127;48.770;9.212;2023-09-12T00:51:52;23.20;;;11.27;;
286;SDS011;127;48.770;9.212;2023-09-12T00:54:23;19.80;;;10.03;;
286;SDS011;127;48.770;9.212;2023-09-12T00:56:55;24.93;;;11.10;;
286;SDS011;127;48.770;9.212;2023-09-12T00:59:24;17.87;;;11.03;;
286;SDS011;127;48.770;9.212;2023-09-12T01:01:52;18.67;;;10.07;;
286;SDS011;127;48.770;9.212;2023-09-12T01:04:21;22.67;;;10.60;;
286;SDS011;127;48.770;9.212;2023-09-12T01:06:50;21.23;;;11.10;;
286;SDS011;127;48.770;9.212;2023-09-12T01:09:19;29.27;;;10.73;;
286;SDS011;127;48.770;9.212;2023-09-12T01:11:48;18.67;;;11.30;;
286;SDS011;127;48.770;9.212;2023-09-12T01:14:19;24.93;;;10.80;;
286;SDS011;127;48.770;9.212;2023-09-12T01:16:48;18.80;;;10.57;;
286;SDS011;127;48.770;9.212;2023-09-12T01:19:17;22.90;;;10.27;;
286;SDS011;127;48.770;9.212;2023-09-12T01:21:55;19.73;;;9.60;;
286;SDS011;127;48.770;9.212;2023-09-12T01:25:08;16.57;;;9.47;;
286;SDS011;127;48.770;9.212;2023-09-12T01:28:05;26.93;;;10.70;;
286;SDS011;127;48.770;9.212;2023-09-12T01:30:37;19.17;;;10.37;;
286;SDS011;127;48.770;9.212;2023-09-12T01:33:09;26.10;;;11.17;;
286;SDS011;127;48.770;9.212;2023-09-12T01:35:39;18.63;;;10.00;;
286;SDS011;127;48.770;9.212;2023-09-12T01:38:08;23.80;;;11.20;;
286;SDS011;127;48.770;9.212;2023-09-12T01:40:38;18.57;;;10.87;;
286;SDS011;127;48.770;9.212;2023-09-12T01:43:14;18.00;;;12.20;;
286;SDS011;127;48.770;9.212;2023-09-12T01:45:45;25.17;;;11.20;;
286;SDS011;127;48.770;9.212;2023-09-12T01:48:16;19.33;;;11.90;;
286;SDS011;127;48.770;9.212;2023-09-12T01:50:49;21.83;;;12.30;;
286;SDS011;127;48.770;9.212;2023-09-12T01:53:18;19.93;;;11.73;;
286;SDS011;127;48.770;9.212;2023-09-12T01:55:47;18.90;;;11.07;;
286;SDS011;127;48.770;9.212;2023-09-12T01:58:19;28.30;;;11.80;;
286;SDS011;127;48.770;9.212;2023-09-12T02:00:52;24.50;;;12.00;;
286;SDS011;127;48.770;9.212;2023-09-12T02:03:22;19.93;;;12.30;;
286;SDS011;127;48.770;9.212;2023-09-12T02:05:50;22.43;;;13.17;;
286;SDS011;127;48.770;9.212;2023-09-12T02:08:19;21.40;;;11.50;;
286;SDS011;127;48.770;9.212;2023-09-12T02:10:48;23.07;;;11.20;;
286;SDS011;127;48.770;9.212;2023-09-12T02:13:19;24.33;;;11.13;;
286;SDS011;127;48.770;9.212;2023-09-12T02:15:48;27.73;;;11.00;;
286;SDS011;127;48.770;9.212;2023-09-12T02:18:16;17.90;;;11.07;;
286;SDS011;127;48.770;9.212;2023-09-12T02:20:45;21.97;;;10.70;;
286;SDS011;127;48.770;9.212;2023-09-12T02:23:14;23.23;;;10.80;;
286;SDS011;127;48.770;9.212;2023-09-12T02:25:42;20.63;;;10.57;;
286;SDS011;127;48.770;9.212;2023-09-12T02:28:11;22.83;;;10.57;;
286;SDS011;127;48.770;9.212;2023-09-12T02:30:42;18.83;;;11.83;;
286;SDS011;127;48.770;9.212;2023-09-12T02:33:11;22.27;;;12.13;;
286;SDS011;127;48.770;9.212;2023-09-12T02:35:39;20.70;;;10.93;;
286;SDS011;127;48.770;9.212;2023-09-12T02:38:08;28.83;;;11.87;;
286;SDS011;127;48.770;9.212;2023-09-12T02:40:37;18.87;;;11.20;;
286;SDS011;127;48.770;9.212;2023-09-12T02:43:06;16.37;;;11.10;;
286;SDS011;127;48.770;9.212;2023-09-12T02:45:34;23.33;;;11.50;;
286;SDS011;127;48.770;9.212;2023-09-12T02:48:06;22.90;;;11.77;;
286;SDS011;127;48.770;9.212;2023-09-12T02:50:34;17.97;;;10.40;;
286;SDS011;127;48.770;9.212;2023-09-12T02:53:03;18.60;;;10.63;;
286;SDS011;127;48.770;9.212;2023-09-12T02:55:32;17.70;;;10.03;;
286;SDS011;127;48.770;9.212;2023-09-12T02:58:00;31.43;;;12.10;;
286;SDS011;127;48.770;9.212;2023-09-12T03:00:29;18.33;;;11.23;;
286;SDS011;127;48.770;9.212;2023-09-12T03:02:58;22.40;;;11.40;;
286;SDS011;127;48.770;9.212;2023-09-12T03:05:30;19.27;;;11.80;;
286;SDS011;127;48.770;9.212;2023-09-12T03:07:59;16.03;;;11.20;;
286;SDS011;127;48.770;9.212;2023-09-12T03:10:27;25.93;;;12.37;;
286;SDS011;127;48.770;9.212;2023-09-12T03:12:56;22.20;;;11.60;;
286;SDS011;127;48.770;9.212;2023-09-12T03:15:24;20.20;;;11.13;;
286;SDS011;127;48.770;9.212;2023-09-12T03:17:53;19.97;;;10.43;;
286;SDS011;127;48.770;9.212;2023-09-12T03:20:22;20.70;;;10.43;;
286;SDS011;127;48.770;9.212;2023-09-12T03:22:53;19.10;;;10.70;;
286;SDS011;127;48.770;9.212;2023-09-12T03:25:22;21.20;;;10.87;;
286;SDS011;127;48.770;9.212;2023-09-12T03:27:50;19.50;;;10.90;;
286;SDS011;127;48.770;9.212;2023-09-12T03:30:19;25.80;;;10.13;;
286;SDS011;127;48.770;9.212;2023-09-12T03:32:49;20.13;;;11.20;;
286;SDS011;127;48.770;9.212;2023-09-12T03:35:17;33.50;;;12.33;;
286;SDS011;127;48.770;9.212;2023-09-12T03:37:46;22.87;;;10.37;;
286;SDS011;127;48.770;9.212;2023-09-12T03:40:17;20.23;;;10.97;;
286;SDS011;127;48.770;9.212;2023-09-12T03:42:46;18.43;;;9.87;;
286;SDS011;127;48.770;9.212;2023-09-12T03:45:15;19.53;;;10.70;;
286;SDS011;127;48.770;9.212;2023-09-12T03:47:43;18.40;;;10.53;;
286;SDS011;127;48.770;9.212;2023-09-12T03:50:12;24.33;;;10.07;;
286;SDS011;127;48.770;9.212;2023-09-12T03:52:41;25.47;;;10.57;;
286;SDS011;127;48.770;9.212;2023-09-12T03:55:10;21.50;;;10.30;;
286;SDS011;127;48.770;9.212;2023-09-12T03:57:41;26.37;;;11.53;;
286;SDS011;127;48.770;9.212;2023-09-12T04:00:10;22.10;;;11.80;;
286;SDS011;127;48.770;9.212;2023-09-12T04:02:40;29.60;;;11.90;;
286;SDS011;127;48.770;9.212;2023-09-12T04:05:08;25.17;;;11.83;;
286;SDS011;127;48.770;9.212;2023-09-12T04:07:37;21.83;;;10.77;;
286;SDS011;127;48.770;9.212;2023-09-12T04:10:06;23.87;;;11.23;;
286;SDS011;127;48.770;9.212;2023-09-12T04:12:35;20.90;;;11.57;;
286;SDS011;127;48.770;9.212;2023-09-12T04:15:07;19.63;;;11.20;;
286;SDS011;127;48.770;9.212;2023-09-12T04:17:36;20.80;;;10.70;;
286;SDS011;127;48.770;9.212;2023-09-12T04:20:05;22.63;;;11.50;;
286;SDS011;127;48.770;9.212;2023-09-12T04:22:38;19.60;;;11.87;;
286;SDS011;127;48.770;9.212;2023-09-12T04:25:07;24.67;;;11.57;;
286;SDS011;127;48.770;9.212;2023-09-12T04:27:36;21.70;;;13.23;;
286;SDS011;127;48.770;9.212;2023-09-12T04:30:08;18.80;;;10.70;;
286;SDS011;127;48.770;9.212;2023-09-12T04:32:37;24.60;;;12.30;;
286;SDS011;127;48.770;9.212;2023-09-12T04:35:06;21.23;;;11.20;;
286;SDS011;127;48.770;9.212;2023-09-12T04:37:35;20.03;;;11.80;;
286;SDS011;127;48.770;9.212;2023-09-12T04:40:04;20.13;;;10.80;;
286;SDS011;127;48.770;9.212;2023-09-12T04:42:35;20.57;;;11.30;;
286;SDS011;127;48.770;9.212;2023-09-12T04:45:07;21.83;;;11.20;;
286;SDS011;127;48.770;9.212;2023-09-12T04:47:36;25.13;;;12.50;;
286;SDS011;127;48.770;9.212;2023-09-12T04:50:05;28.97;;;12.10;;
286;SDS011;127;48.770;9.212;2023-09-12T04:52:34;20.60;;;10.67;;
286;SDS011;127;48.770;9.212;2023-09-12T04:55:03;24.13;;;11.70;;
286;SDS011;127;48.770;9.212;2023-09-12T04:57:32;19.83;;;11.47;;
286;SDS011;127;48.770;9.212;2023-09-12T05:00:01;23.10;;;11.63;;
286;SDS011;127;48.770;9.212;2023-09-12T05:02:33;20.07;;;13.00;;
286;SDS011;127;48.770;9.212;2023-09-12T05:05:02;23.87;;;11.17;;
286;SDS011;127;48.770;9.212;2023-09-12T05:07:31;21.43;;;12.10;;
286;SDS011;127;48.770;9.212;2023-09-12T05:10:02;20.97;;;11.93;;
286;SDS011;127;48.770;9.212;2023-09-12T05:12:32;23.20;;;11.63;;
286;SDS011;127;48.770;9.212;2023-09-12T05:15:00;26.23;;;12.90;;
286;SDS011;127;48.770;9.212;2023-09-12T05:17:29;18.60;;;11.20;;
286;SDS011;127;48.770;9.212;2023-09-12T05:20:01;20.00;;;12.67;;
286;SDS011;127;48.770;9.212;2023-09-12T05:22:31;21.70;;;11.97;;
286;SDS011;127;48.770;9.212;2023-09-12T05:24:59;21.40;;;11.87;;
286;SDS011;127;48.770;9.212;2023-09-12T05:27:28;21.00;;;11.17;;
286;SDS011;127;48.770;9.212;2023-09-12T05:29:57;24.10;;;11.77;;
286;SDS011;127;48.770;9.212;2023-09-12T05:32:25;23.60;;;10.80;;
286;SDS011;127;48.770;9.212;2023-09-12T05:34:54;21.80;;;11.40;;
286;SDS011;127;48.770;9.212;2023-09-12T05:37:25;22.50;;;10.80;;
286;SDS011;127;48.770;9.212;2023-09-12T05:43:05;18.63;;;10.70;;
286;SDS011;127;48.770;9.212;2023-09-12T05:45:33;18.70;;;11.83;;
286;SDS011;127;48.770;9.212;2023-09-12T05:48:03;21.73;;;12.20;;
286;SDS011;127;48.770;9.212;2023-09-12T05:50:32;22.80;;;11.93;;
286;SDS011;127;48.770;9.212;2023-09-12T05:53:04;28.83;;;10.83;;
286;SDS011;127;48.770;9.212;2023-09-12T05:55:33;26.47;;;12.27;;
286;SDS011;127;48.770;9.212;2023-09-12T05:58:02;20.80;;;12.37;;
286;SDS011;127;48.770;9.212;2023-09-12T06:00:31;16.90;;;10.20;;
286;SDS011;127;48.770;9.212;2023-09-12T06:03:00;15.80;;;10.63;;
286;SDS011;127;48.770;9.212;2023-09-12T06:05:28;22.23;;;11.20;;
286;SDS011;127;48.770;9.212;2023-09-12T06:07:57;26.20;;;11.23;;
286;SDS011;127;48.770;9.212;2023-09-12T06:10:28;20.77;;;10.87;;
286;SDS011;127;48.770;9.212;2023-09-12T06:12:59;27.07;;;11.60;;
286;SDS011;127;48.770;9.212;2023-09-12T06:15:27;19.73;;;10.80;;
286;SDS011;127;48.770;9.212;2023-09-12T06:17:56;18.63;;;10.23;;
286;SDS011;127;48.770;9.212;2023-09-12T06:20:25;16.00;;;10.03;;
286;SDS011;127;48.770;9.212;2023-09-12T06:22:54;21.53;;;11.90;;
286;SDS011;127;48.770;9.212;2023-09-12T06:25:24;14.43;;;9.57;;
286;SDS011;127;48.770;9.212;2023-09-12T06:27:56;22.17;;;11.43;;
286;SDS011;127;48.770;9.212;2023-09-12T06:30:25;20.30;;;9.87;;
286;SDS011;127;48.770;9.212;2023-09-12T06:32:55;33.23;;;10.77;;
286;SDS011;127;48.770;9.212;2023-09-12T06:35:27;22.40;;;10.97;;
286;SDS011;127;48.770;9.212;2023-09-12T06:37:55;16.00;;;10.70;;
286;SDS011;127;48.770;9.212;2023-09-12T06:40:24;19.63;;;10.17;;
286;SDS011;127;48.770;9.212;2023-09-12T06:42:53;23.97;;;12.23;;
286;SDS011;127;48.770;9.212;2023-09-12T06:45:24;26.30;;;11.40;;
286;SDS011;127;48.770;9.212;2023-09-12T06:47:53;25.63;;;11.33;;
286;SDS011;127;48.770;9.212;2023-09-12T06:50:21;28.23;;;11.30;;
286;SDS011;127;48.770;9.212;2023-09-12T06:52:50;20.43;;;11.30;;
286;SDS011;127;48.770;9.212;2023-09-12T06:55:19;23.43;;;11.00;;
286;SDS011;127;48.770;9.212;2023-09-12T06:57:47;16.77;;;9.90;;
286;SDS011;127;48.770;9.212;2023-09-12T07:00:16;19.03;;;11.37;;
286;SDS011;127;48.770;9.212;2023-09-12T07:02:48;23.77;;;12.20;;
286;SDS011;127;48.770;9.212;2023-09-12T07:05:16;19.73;;;12.10;;
286;SDS011;127;48.770;9.212;2023-09-12T07:07:45;25.80;;;11.33;;
286;SDS011;127;48.770;9.212;2023-09-12T07:10:14;24.20;;;11.30;;
286;SDS011;127;48.770;9.212;2023-09-12T07:12:43;29.03;;;11.80;;
286;SDS011;127;48.770;9.212;2023-09-12T07:15:12;19.83;;;11.50;;
286;SDS011;127;48.770;9.212;2023-09-12T07:17:40;23.90;;;11.07;;
286;SDS011;127;48.770;9.212;2023-09-12T07:20:12;23.93;;;11.10;;
286;SDS011;127;48.770;9.212;2023-09-12T07:22:43;24.53;;;11.20;;
286;SDS011;127;48.770;9.212;2023-09-12T07:25:11;22.60;;;10.50;;
286;SDS011;127;48.770;9.212;2023-09-12T07:27:41;20.40;;;9.83;;
286;SDS011;127;48.770;9.212;2023-09-12T07:30:10;18.90;;;10.73;;
286;SDS011;127;48.770;9.212;2023-09-12T07:32:40;21.90;;;11.23;;
286;SDS011;127;48.770;9.212;2023-09-12T07:35:08;21.63;;;11.73;;
286;SDS011;127;48.770;9.212;2023-09-12T07:37:40;21.90;;;10.80;;
286;SDS011;127;48.770;9.212;2023-09-12T07:40:09;18.50;;;10.50;;
286;SDS011;127;48.770;9.212;2023-09-12T07:42:38;21.83;;;10.70;;
286;SDS011;127;48.770;9.212;2023-09-12T07:45:07;23.57;;;11.50;;
286;SDS011;127;48.770;9.212;2023-09-12T07:47:37;20.53;;;9.97;;
286;SDS011;127;48.770;9.212;2023-09-12T07:50:06;19.27;;;10.80;;
286;SDS011;127;48.770;9.212;2023-09-12T07:52:37;18.90;;;10.00;;
286;SDS011;127;48.770;9.212;2023-09-12T07:55:07;30.77;;;9.87;;
286;SDS011;127;48.770;9.212;2023-09-12T07:57:38;18.70;;;9.80;;
286;SDS011;127;48.770;9.212;2023-09-12T08:00:08;18.20;;;9.87;;
286;SDS011;127;48.770;9.212;2023-09-12T08:02:42;20.70;;;9.33;;
286;SDS011;127;48.770;9.212;2023-09-12T08:05:10;15.10;;;8.60;;
286;SDS011;127;48.770;9.212;2023-09-12T08:07:42;19.60;;;9.23;;
286;SDS011;127;48.770;9.212;2023-09-12T08:10:11;14.60;;;8.90;;
286;SDS011;127;48.770;9.212;2023-09-12T08:12:39;22.13;;;10.40;;
286;SDS011;127;48.770;9.212;2023-09-12T08:15:09;20.33;;;9.77;;
286;SDS011;127;48.770;9.212;2023-09-12T08:17:37;19.20;;;10.30;;
286;SDS011;127;48.770;9.212;2023-09-12T08:20:07;27.77;;;11.17;;
286;SDS011;127;48.770;9.212;2023-09-12T08:22:37;19.20;;;11.30;;
286;SDS011;127;48.770;9.212;2023-09-12T08:25:09;13.00;;;9.47;;
286;SDS011;127;48.770;9.212;2023-09-12T08:27:38;19.30;;;10.87;;
286;SDS011;127;48.770;9.212;2023-09-12T08:30:07;18.03;;;9.47;;
286;SDS011;127;48.770;9.212;2023-09-12T08:32:37;18.10;;;10.80;;
286;SDS011;127;48.770;9.212;2023-09-12T08:35:09;16.77;;;9.17;;
286;SDS011;127;48.770;9.212;2023-09-12T08:37:40;22.37;;;10.70;;
286;SDS011;127;48.770;9.212;2023-09-12T08:40:12;22.43;;;11.67;;
286;SDS011;127;48.770;9.212;2023-09-12T08:42:41;18.53;;;10.60;;
286;SDS011;127;48.770;9.212;2023-09-12T08:45:12;18.33;;;11.10;;
286;SDS011;127;48.770;9.212;2023-09-12T08:47:42;19.10;;;10.40;;
286;SDS011;127;48.770;9.212;2023-09-12T08:50:13;16.73;;;9.63;;
286;SDS011;127;48.770;9.212;2023-09-12T08:52:44;14.50;;;9.77;;
286;SDS011;127;48.770;9.212;2023-09-12T08:55:20;23.20;;;10.33;;
286;SDS011;127;48.770;9.212;2023-09-12T08:57:51;16.30;;;9.90;;
286;SDS011;127;48.770;9.212;2023-09-12T09:00:22;17.43;;;9.43;;
286;SDS011;127;48.770;9.212;2023-09-12T09:02:52;15.97;;;10.00;;
286;SDS011;127;48.770;9.212;2023-09-12T09:05:21;18.10;;;9.57;;
286;SDS011;127;48.770;9.212;2023-09-12T09:07:51;16.23;;;9.47;;
286;SDS011;127;48.770;9.212;2023-09-12T09:10:28;22.00;;;9.93;;
286;SDS011;127;48.770;9.212;2023-09-12T09:12:57;17.20;;;9.70;;
286;SDS011;127;48.770;9.212;2023-09-12T09:15:27;15.10;;;9.97;;
286;SDS011;127;48.770;9.212;2023-09-12T09:17:58;13.17;;;8.80;;
286;SDS011;127;48.770;9.212;2023-09-12T09:20:31;13.73;;;9.47;;
286;SDS011;127;48.770;9.212;2023-09-12T09:23:02;17.17;;;9.90;;
286;SDS011;127;48.770;9.212;2023-09-12T09:25:40;25.40;;;10.17;;
286;SDS011;127;48.770;9.212;2023-09-12T09:28:15;21.77;;;9.47;;
286;SDS011;127;48.770;9.212;2023-09-12T09:30:49;16.90;;;10.00;;
286;SDS011;127;48.770;9.212;2023-09-12T09:33:16;16.80;;;9.17;;
286;SDS011;127;48.770;9.212;2023-09-12T09:35:46;17.40;;;9.13;;
286;SDS011;127;48.770;9.212;2023-09-12T09:38:18;19.10;;;9.20;;
286;SDS011;127;48.770;9.212;2023-09-12T09:40:51;18.83;;;10.33;;
286;SDS011;127;48.770;9.212;2023-09-12T09:43:20;20.37;;;9.80;;
286;SDS011;127;48.770;9.212;2023-09-12T09:45:50;15.17;;;10.20;;
286;SDS011;127;48.770;9.212;2023-09-12T09:48:19;25.90;;;11.10;;
286;SDS011;127;48.770;9.212;2023-09-12T09:50:48;19.33;;;9.73;;
286;SDS011;127;48.770;9.212;2023-09-12T09:53:17;16.43;;;9.83;;
286;SDS011;127;48.770;9.212;2023-09-12T09:56:01;24.87;;;9.30;;
286;SDS011;127;48.770;9.212;2023-09-12T09:58:36;21.33;;;9.73;;
286;SDS011;127;48.770;9.212;2023-09-12T10:01:05;18.50;;;10.53;;
286;SDS011;127;48.770;9.212;2023-09-12T10:03:37;24.80;;;9.73;;
286;SDS011;127;48.770;9.212;2023-09-12T10:06:06;18.07;;;9.20;;
286;SDS011;127;48.770;9.212;2023-09-12T10:08:36;14.80;;;9.30;;
286;SDS011;127;48.770;9.212;2023-09-12T10:11:11;17.80;;;9.10;;
286;SDS011;127;48.770;9.212;2023-09-12T10:13:42;15.27;;;10.20;;
286;SDS011;127;48.770;9.212;2023-09-12T10:16:15;16.70;;;10.43;;
286;SDS011;127;48.770;9.212;2023-09-12T10:18:46;16.27;;;9.30;;
286;SDS011;127;48.770;9.212;2023-09-12T10:21:29;24.30;;;10.00;;
286;SDS011;127;48.770;9.212;2023-09-12T10:23:59;19.53;;;9.80;;
286;SDS011;127;48.770;9.212;2023-09-12T10:26:33;23.23;;;9.10;;
286;SDS011;127;48.770;9.212;2023-09-12T10:29:07;20.10;;;9.70;;
286;SDS011;127;48.770;9.212;2023-09-12T10:31:39;21.73;;;10.50;;
286;SDS011;127;48.770;9.212;2023-09-12T10:34:08;25.13;;;11.50;;
286;SDS011;127;48.770;9.212;2023-09-12T10:36:46;17.10;;;11.30;;
286;SDS011;127;48.770;9.212;2023-09-12T10:39:29;18.33;;;10.30;;
286;SDS011;127;48.770;9.212;2023-09-12T10:42:02;22.13;;;11.70;;
286;SDS011;127;48.770;9.212;2023-09-12T10:44:34;19.77;;;11.20;;
286;SDS011;127;48.770;9.212;2023-09-12T10:47:04;14.83;;;11.33;;
286;SDS011;127;48.770;9.212;2023-09-12T10:49:33;22.47;;;10.40;;
286;SDS011;127;48.770;9.212;2023-09-12T10:52:03;25.33;;;10.50;;
286;SDS011;127;48.770;9.212;2023-09-12T10:54:38;18.17;;;11.03;;
286;SDS011;127;48.770;9.212;2023-09-12T10:57:10;17.13;;;9.27;;
286;SDS011;127;48.770;9.212;2023-09-12T11:02:40;18.83;;;10.73;;
286;SDS011;127;48.770;9.212;2023-09-12T11:08:05;26.10;;;10.20;;
286;SDS011;127;48.770;9.212;2023-09-12T11:10:34;25.27;;;9.20;;
286;SDS011;127;48.770;9.212;2023-09-12T11:13:05;19.03;;;10.30;;
286;SDS011;127;48.770;9.212;2023-09-12T11:21:43;15.00;;;9.80;;
286;SDS011;127;48.770;9.212;2023-09-12T11:24:14;17.87;;;9.57;;
286;SDS011;127;48.770;9.212;2023-09-12T11:26:53;18.97;;;10.70;;
286;SDS011;127;48.770;9.212;2023-09-12T11:29:29;24.00;;;9.43;;
286;SDS011;127;48.770;9.212;2023-09-12T11:32:06;17.97;;;9.67;;
286;SDS011;127;48.770;9.212;2023-09-12T11:34:37;17.00;;;9.33;;
286;SDS011;127;48.770;9.212;2023-09-12T11:37:09;18.00;;;10.30;;
286;SDS011;127;48.770;9.212;2023-09-12T11:39:50;18.13;;;10.23;;
286;SDS011;127;48.770;9.212;2023-09-12T11:42:19;20.50;;;8.63;;
286;SDS011;127;48.770;9.212;2023-09-12T11:44:53;17.93;;;9.70;;
286;SDS011;127;48.770;9.212;2023-09-12T11:47:25;18.10;;;9.70;;
286;SDS011;127;48.770;9.212;2023-09-12T11:49:54;28.50;;;9.63;;
286;SDS011;127;48.770;9.212;2023-09-12T11:52:22;16.07;;;9.37;;
286;SDS011;127;48.770;9.212;2023-09-12T11:54:52;15.87;;;9.60;;
286;SDS011;127;48.770;9.212;2023-09-12T11:57:22;14.20;;;10.03;;
286;SDS011;127;48.770;9.212;2023-09-12T11:59:54;14.07;;;9.50;;
286;SDS011;127;48.770;9.212;2023-09-12T12:02:24;13.37;;;8.63;;
286;SDS011;127;48.770;9.212;2023-09-12T12:04:53;20.93;;;9.50;;
286;SDS011;127;48.770;9.212;2023-09-12T12:07:24;24.00;;;9.80;;
286;SDS011;127;48.770;9.212;2023-09-12T12:09:53;18.00;;;9.27;;
286;SDS011;127;48.770;9.212;2023-09-12T12:12:26;13.20;;;9.30;;
286;SDS011;127;48.770;9.212;2023-09-12T12:15:00;19.53;;;10.73;;
286;SDS011;127;48.770;9.212;2023-09-12T12:17:29;16.00;;;10.37;;
286;SDS011;127;48.770;9.212;2023-09-12T12:19:58;12.20;;;8.30;;
286;SDS011;127;48.770;9.212;2023-09-12T12:22:31;19.17;;;9.07;;
286;SDS011;127;48.770;9.212;2023-09-12T12:25:05;17.80;;;9.53;;
286;SDS011;127;48.770;9.212;2023-09-12T12:27:41;17.00;;;8.40;;
286;SDS011;127;48.770;9.212;2023-09-12T12:30:17;11.03;;;8.40;;
286;SDS011;127;48.770;9.212;2023-09-12T12:32:49;16.87;;;10.33;;
286;SDS011;127;48.770;9.212;2023-09-12T12:35:18;12.83;;;8.97;;
286;SDS011;127;48.770;9.212;2023-09-12T12:37:48;13.33;;;9.17;;
286;SDS011;127;48.770;9.212;2023-09-12T12:40:18;16.80;;;8.47;;
286;SDS011;127;48.770;9.212;2023-09-12T12:42:48;14.27;;;8.67;;
286;SDS011;127;48.770;9.212;2023-09-12T12:45:20;14.40;;;7.27;;
286;SDS011;127;48.770;9.212;2023-09-12T12:47:57;12.33;;;8.47;;
286;SDS011;127;48.770;9.212;2023-09-12T12:50:27;13.47;;;8.00;;
286;SDS011;127;48.770;9.212;2023-09-12T12:52:56;14.13;;;8.70;;
286;SDS011;127;48.770;9.212;2023-09-12T12:55:30;11.20;;;7.93;;
286;SDS011;127;48.770;9.212;2023-09-12T12:58:00;13.77;;;8.70;;
286;SDS011;127;48.770;9.212;2023-09-12T13:00:38;20.30;;;7.63;;
286;SDS011;127;48.770;9.212;2023-09-12T13:03:18;13.33;;;8.00;;
286;SDS011;127;48.770;9.212;2023-09-12T13:05:47;15.77;;;8.27;;
286;SDS011;127;48.770;9.212;2023-09-12T13:08:16;14.13;;;7.50;;
286;SDS011;127;48.770;9.212;2023-09-12T13:10:44;12.63;;;7.13;;
286;SDS011;127;48.770;9.212;2023-09-12T13:13:13;33.67;;;9.20;;
286;SDS011;127;48.770;9.212;2023-09-12T13:15:45;11.30;;;6.73;;
286;SDS011;127;48.770;9.212;2023-09-12T13:18:13;11.03;;;6.80;;
286;SDS011;127;48.770;9.212;2023-09-12T13:20:46;10.27;;;7.50;;
286;SDS011;127;48.770;9.212;2023-09-12T13:23:15;10.90;;;6.70;;
286;SDS011;127;48.770;9.212;2023-09-12T13:25:46;10.33;;;7.53;;
286;SDS011;127;48.770;9.212;2023-09-12T13:28:14;10.47;;;7.70;;
286;SDS011;127;48.770;9.212;2023-09-12T13:30:46;13.03;;;7.07;;
286;SDS011;127;48.770;9.212;2023-09-12T13:33:15;16.13;;;7.90;;
286;SDS011;127;48.770;9.212;2023-09-12T13:35:46;11.60;;;7.00;;
286;SDS011;127;48.770;9.212;2023-09-12T13:38:17;15.37;;;7.53;;
286;SDS011;127;48.770;9.212;2023-09-12T13:40:48;11.80;;;7.10;;
286;SDS011;127;48.770;9.212;2023-09-12T13:43:17;12.27;;;7.47;;
286;SDS011;127;48.770;9.212;2023-09-12T13:45:50;15.00;;;8.57;;
286;SDS011;127;48.770;9.212;2023-09-12T13:48:19;15.70;;;7.50;;
286;SDS011;127;48.770;9.212;2023-09-12T13:50:51;16.20;;;7.90;;
286;SDS011;127;48.770;9.212;2023-09-12T13:53:20;9.60;;;7.30;;
286;SDS011;127;48.770;9.212;2023-09-12T13:55:49;12.33;;;7.30;;
286;SDS011;127;48.770;9.212;2023-09-12T13:58:20;13.13;;;7.23;;
286;SDS011;127;48.770;9.212;2023-09-12T14:00:52;11.30;;;7.50;;
286;SDS011;127;48.770;9.212;2023-09-12T14:03:21;16.87;;;7.47;;
286;SDS011;127;48.770;9.212;2023-09-12T14:05:50;13.20;;;7.90;;
286;SDS011;127;48.770;9.212;2023-09-12T14:08:18;15.73;;;7.77;;
286;SDS011;127;48.770;9.212;2023-09-12T14:10:50;13.30;;;8.10;;
286;SDS011;127;48.770;9.212;2023-09-12T14:13:21;11.93;;;7.07;;
286;SDS011;127;48.770;9.212;2023-09-12T14:15:52;12.00;;;7.30;;
286;SDS011;127;48.770;9.212;2023-09-12T14:18:21;12.27;;;7.83;;
286;SDS011;127;48.770;9.212;2023-09-12T14:20:51;14.17;;;7.93;;
286;SDS011;127;48.770;9.212;2023-09-12T14:23:29;14.40;;;8.57;;
286;SDS011;127;48.770;9.212;2023-09-12T14:25:59;13.40;;;7.90;;
286;SDS011;127;48.770;9.212;2023-09-12T14:28:29;22.10;;;8.30;;
286;SDS011;127;48.770;9.212;2023-09-12T14:31:04;13.50;;;8.37;;
286;SDS011;127;48.770;9.212;2023-09-12T14:33:38;18.50;;;9.03;;
286;SDS011;127;48.770;9.212;2023-09-12T14:36:07;14.40;;;7.80;;
286;SDS011;127;48.770;9.212;2023-09-12T14:38:41;13.90;;;9.37;;
286;SDS011;127;48.770;9.212;2023-09-12T14:41:11;14.50;;;8.67;;
286;SDS011;127;48.770;9.212;2023-09-12T14:43:40;13.47;;;8.33;;
286;SDS011;127;48.770;9.212;2023-09-12T14:46:12;12.93;;;8.43;;
286;SDS011;127;48.770;9.212;2023-09-12T14:48:40;16.23;;;9.07;;
286;SDS011;127;48.770;9.212;2023-09-12T14:51:09;12.00;;;8.40;;
286;SDS011;127;48.770;9.212;2023-09-12T14:53:38;20.30;;;8.87;;
286;SDS011;127;48.770;9.212;2023-09-12T14:56:12;15.97;;;9.77;;
286;SDS011;127;48.770;9.212;2023-09-12T14:58:41;14.93;;;8.50;;
286;SDS011;127;48.770;9.212;2023-09-12T15:01:12;18.47;;;8.43;;
286;SDS011;127;48.770;9.212;2023-09-12T15:03:40;11.90;;;7.93;;
286;SDS011;127;48.770;9.212;2023-09-12T15:06:09;15.40;;;9.60;;
286;SDS011;127;48.770;9.212;2023-09-12T15:08:40;20.30;;;8.70;;
286;SDS011;127;48.770;9.212;2023-09-12T15:11:09;17.00;;;9.20;;
286;SDS011;127;48.770;9.212;2023-09-12T15:13:38;21.70;;;10.67;;
286;SDS011;127;48.770;9.212;2023-09-12T15:16:06;15.23;;;8.70;;
286;SDS011;127;48.770;9.212;2023-09-12T15:18:38;14.43;;;8.80;;
286;SDS011;127;48.770;9.212;2023-09-12T15:21:07;17.87;;;9.30;;
286;SDS011;127;48.770;9.212;2023-09-12T15:23:35;14.50;;;9.20;;
286;SDS011;127;48.770;9.212;2023-09-12T15:26:04;13.60;;;8.83;;
286;SDS011;127;48.770;9.212;2023-09-12T15:28:33;30.63;;;8.77;;
286;SDS011;127;48.770;9.212;2023-09-12T15:31:02;13.50;;;8.33;;
286;SDS011;127;48.770;9.212;2023-09-12T15:33:30;24.27;;;9.27;;
286;SDS011;127;48.770;9.212;2023-09-12T15:36:02;16.73;;;9.13;;
286;SDS011;127;48.770;9.212;2023-09-12T15:38:33;14.80;;;8.30;;
286;SDS011;127;48.770;9.212;2023-09-12T15:41:02;15.97;;;9.23;;
286;SDS011;127;48.770;9.212;2023-09-12T15:43:33;22.07;;;9.50;;
286;SDS011;127;48.770;9.212;2023-09-12T15:46:02;12.33;;;7.80;;
286;SDS011;127;48.770;9.212;2023-09-12T15:48:31;23.73;;;9.70;;
286;SDS011;127;48.770;9.212;2023-09-12T15:51:03;19.70;;;9.17;;
286;SDS011;127;48.770;9.212;2023-09-12T15:53:32;18.07;;;8.80;;
286;SDS011;127;48.770;9.212;2023-09-12T15:56:00;18.20;;;8.60;;
286;SDS011;127;48.770;9.212;2023-09-12T15:58:29;11.57;;;8.23;;